createdAt,value
2019-05-30T00:00:17.733Z,5.60
2019-05-30T00:01:16.440Z,5.58
2019-05-30T00:02:16.702Z,5.52
2019-05-30T00:03:16.973Z,5.47
2019-05-30T00:04:16.250Z,5.47
2019-05-30T00:05:16.528Z,5.37
2019-05-30T00:06:16.798Z,5.37
2019-05-30T00:07:17.074Z,5.38
2019-05-30T00:08:16.340Z,5.38
2019-05-30T00:09:16.596Z,5.38
2019-05-30T00:10:16.859Z,5.37
2019-05-30T00:11:16.936Z,5.35
2019-05-30T00:12:16.215Z,5.34
2019-05-30T00:13:16.485Z,5.31
2019-05-30T00:14:16.755Z,5.27
2019-05-30T00:15:17.043Z,5.23
2019-05-30T00:16:16.310Z,5.17
2019-05-30T00:17:16.581Z,5.20
2019-05-30T00:18:16.844Z,5.14
2019-05-30T00:19:17.111Z,5.16
2019-05-30T00:20:16.394Z,5.06
2019-05-30T00:21:16.434Z,5.07
2019-05-30T00:22:16.695Z,5.00
2019-05-30T00:23:16.963Z,5.00
2019-05-30T00:24:16.232Z,4.99
2019-05-30T00:25:16.505Z,4.96
2019-05-30T00:26:16.785Z,4.93
2019-05-30T00:27:17.052Z,4.88
2019-05-30T00:28:16.314Z,4.85
2019-05-30T00:29:16.588Z,4.81
2019-05-30T00:30:24.190Z,4.78
2019-05-30T00:31:16.917Z,4.81
2019-05-30T00:32:17.185Z,4.79
2019-05-30T00:33:16.455Z,4.82
2019-05-30T00:34:16.753Z,4.78
2019-05-30T00:35:17.027Z,4.78
2019-05-30T00:36:16.284Z,4.79
2019-05-30T00:37:16.596Z,4.76
2019-05-30T00:38:16.854Z,4.71
2019-05-30T00:39:17.123Z,4.68
2019-05-30T00:40:16.405Z,4.61
2019-05-30T00:41:16.455Z,4.60
2019-05-30T00:42:16.713Z,4.55
2019-05-30T00:43:16.972Z,4.54
2019-05-30T00:44:16.237Z,4.50
2019-05-30T00:45:20.646Z,4.50
2019-05-30T00:46:16.773Z,4.50
2019-05-30T00:47:17.044Z,4.48
2019-05-30T00:48:16.313Z,4.48
2019-05-30T00:49:16.584Z,4.46
2019-05-30T00:50:16.866Z,4.41
2019-05-30T00:51:16.919Z,4.44
2019-05-30T00:52:17.182Z,4.44
2019-05-30T00:53:16.447Z,4.43
2019-05-30T00:54:16.735Z,4.47
2019-05-30T00:55:17.093Z,4.44
2019-05-30T00:56:16.380Z,4.46
2019-05-30T00:57:16.645Z,4.48
2019-05-30T00:58:16.919Z,4.48
2019-05-30T00:59:17.182Z,4.50
2019-05-30T01:00:16.467Z,4.48
2019-05-30T01:01:16.510Z,4.48
2019-05-30T01:02:16.775Z,4.51
2019-05-30T01:03:17.051Z,4.53
2019-05-30T01:04:16.364Z,4.53
2019-05-30T01:05:16.627Z,4.55
2019-05-30T01:06:16.893Z,4.54
2019-05-30T01:07:17.165Z,4.57
2019-05-30T01:08:16.431Z,4.58
2019-05-30T01:09:16.706Z,4.57
2019-05-30T01:10:16.981Z,4.53
2019-05-30T01:11:17.050Z,4.54
2019-05-30T01:12:16.331Z,4.53
2019-05-30T01:13:16.598Z,4.51
2019-05-30T01:14:16.856Z,4.48
2019-05-30T01:15:17.125Z,4.51
2019-05-30T01:16:16.385Z,4.48
2019-05-30T01:17:16.639Z,4.44
2019-05-30T01:18:16.909Z,4.43
2019-05-30T01:19:17.174Z,4.41
2019-05-30T01:20:16.459Z,4.40
2019-05-30T01:21:16.521Z,4.36
2019-05-30T01:22:16.790Z,4.34
2019-05-30T01:23:17.044Z,4.31
2019-05-30T01:24:16.309Z,4.30
2019-05-30T01:25:16.594Z,4.26
2019-05-30T01:26:16.863Z,4.26
2019-05-30T01:27:17.116Z,4.26
2019-05-30T01:28:16.387Z,4.26
2019-05-30T01:29:16.661Z,4.27
2019-05-30T01:30:16.947Z,4.27
2019-05-30T01:31:16.984Z,4.20
2019-05-30T01:32:16.240Z,4.13
2019-05-30T01:33:16.505Z,4.09
2019-05-30T01:34:16.774Z,4.09
2019-05-30T01:35:17.075Z,4.09
2019-05-30T01:36:16.350Z,4.12
2019-05-30T01:37:16.628Z,4.10
2019-05-30T01:38:16.893Z,4.10
2019-05-30T01:39:17.155Z,4.06
2019-05-30T01:40:16.441Z,4.13
2019-05-30T01:41:17.630Z,4.23
2019-05-30T01:42:17.175Z,4.20
2019-05-30T01:43:16.434Z,4.21
2019-05-30T01:44:16.711Z,4.26
2019-05-30T01:45:16.998Z,4.19
2019-05-30T01:46:16.269Z,4.17
2019-05-30T01:47:16.541Z,4.16
2019-05-30T01:48:16.822Z,4.05
2019-05-30T01:49:17.086Z,4.05
2019-05-30T01:50:16.351Z,4.05
2019-05-30T01:51:16.415Z,4.02
2019-05-30T01:52:16.682Z,4.02
2019-05-30T01:53:16.939Z,4.00
2019-05-30T01:54:16.200Z,4.00
2019-05-30T01:55:16.459Z,3.92
2019-05-30T01:56:16.735Z,3.90
2019-05-30T01:57:17.005Z,3.89
2019-05-30T01:58:16.270Z,3.86
2019-05-30T01:59:16.539Z,3.85
2019-05-30T02:00:20.961Z,3.82
2019-05-30T02:01:23.942Z,3.81
2019-05-30T02:02:16.974Z,3.85
2019-05-30T02:03:16.237Z,3.83
2019-05-30T02:04:16.515Z,3.81
2019-05-30T02:05:16.798Z,3.75
2019-05-30T02:06:17.079Z,3.79
2019-05-30T02:07:16.346Z,3.77
2019-05-30T02:08:16.455Z,3.81
2019-05-30T02:09:16.749Z,3.78
2019-05-30T02:10:17.061Z,3.72
2019-05-30T02:11:17.093Z,3.75
2019-05-30T02:12:16.358Z,3.65
2019-05-30T02:13:16.622Z,3.64
2019-05-30T02:14:16.901Z,3.60
2019-05-30T02:15:17.187Z,3.64
2019-05-30T02:16:16.471Z,3.62
2019-05-30T02:17:16.771Z,3.55
2019-05-30T02:18:17.048Z,3.54
2019-05-30T02:19:16.312Z,3.55
2019-05-30T02:20:16.594Z,3.53
2019-05-30T02:21:16.649Z,3.53
2019-05-30T02:22:16.925Z,3.58
2019-05-30T02:23:17.186Z,3.60
2019-05-30T02:24:16.500Z,3.57
2019-05-30T02:25:16.846Z,3.55
2019-05-30T02:26:17.118Z,3.54
2019-05-30T02:27:16.390Z,3.50
2019-05-30T02:28:16.652Z,3.50
2019-05-30T02:29:16.931Z,3.50
2019-05-30T02:30:17.202Z,3.50
2019-05-30T02:31:16.262Z,3.47
2019-05-30T02:32:16.544Z,3.46
2019-05-30T02:33:16.817Z,3.47
2019-05-30T02:34:17.090Z,3.44
2019-05-30T02:35:16.358Z,3.41
2019-05-30T02:36:16.632Z,3.43
2019-05-30T02:37:16.910Z,3.43
2019-05-30T02:38:17.170Z,3.40
2019-05-30T02:39:16.462Z,3.39
2019-05-30T02:40:16.772Z,3.40
2019-05-30T02:41:16.806Z,3.40
2019-05-30T02:42:17.098Z,3.49
2019-05-30T02:43:16.389Z,3.50
2019-05-30T02:44:16.669Z,3.57
2019-05-30T02:45:16.942Z,3.57
2019-05-30T02:46:17.214Z,3.58
2019-05-30T02:47:16.491Z,3.58
2019-05-30T02:48:16.771Z,3.47
2019-05-30T02:49:17.042Z,3.43
2019-05-30T02:50:16.326Z,3.33
2019-05-30T02:51:16.393Z,3.34
2019-05-30T02:52:16.655Z,3.36
2019-05-30T02:53:16.927Z,3.33
2019-05-30T02:54:16.226Z,3.30
2019-05-30T02:55:16.496Z,3.31
2019-05-30T02:56:16.754Z,3.30
2019-05-30T02:57:17.022Z,3.30
2019-05-30T02:58:16.290Z,3.28
2019-05-30T02:59:16.578Z,3.30
2019-05-30T03:00:17.804Z,3.27
2019-05-30T03:01:16.911Z,3.26
2019-05-30T03:02:17.573Z,3.24
2019-05-30T03:03:16.323Z,3.24
2019-05-30T03:04:16.611Z,3.22
2019-05-30T03:05:16.916Z,3.20
2019-05-30T03:06:16.216Z,3.22
2019-05-30T03:07:16.528Z,3.19
2019-05-30T03:08:16.810Z,3.16
2019-05-30T03:09:17.115Z,3.17
2019-05-30T03:10:16.395Z,3.19
2019-05-30T03:11:16.450Z,3.20
2019-05-30T03:12:16.734Z,3.24
2019-05-30T03:13:17.014Z,3.23
2019-05-30T03:14:19.388Z,3.24
2019-05-30T03:15:16.499Z,3.19
2019-05-30T03:16:16.780Z,3.16
2019-05-30T03:17:17.057Z,3.17
2019-05-30T03:18:16.340Z,3.16
2019-05-30T03:19:16.612Z,3.16
2019-05-30T03:20:22.460Z,3.16
2019-05-30T03:21:16.951Z,3.14
2019-05-30T03:22:16.232Z,3.16
2019-05-30T03:23:16.531Z,3.12
2019-05-30T03:24:16.813Z,3.09
2019-05-30T03:25:17.082Z,3.13
2019-05-30T03:26:16.552Z,3.09
2019-05-30T03:27:16.925Z,3.07
2019-05-30T03:28:17.205Z,3.09
2019-05-30T03:29:16.480Z,3.13
2019-05-30T03:30:26.385Z,3.12
2019-05-30T03:31:26.529Z,3.12
2019-05-30T03:32:58.794Z,3.12
2019-05-30T03:33:35.476Z,3.13
2019-05-30T03:34:21.843Z,3.14
2019-05-30T03:35:26.734Z,3.16
2019-05-30T03:36:28.128Z,3.22
2019-05-30T03:37:26.392Z,3.20
2019-05-30T03:38:16.686Z,3.14
2019-05-30T03:39:16.979Z,3.19
2019-05-30T03:40:18.220Z,3.16
2019-05-30T03:41:16.348Z,3.17
2019-05-30T03:42:16.641Z,3.20
2019-05-30T03:43:16.904Z,3.23
2019-05-30T03:44:17.197Z,3.26
2019-05-30T03:45:16.746Z,3.23
2019-05-30T03:46:17.048Z,3.24
2019-05-30T03:47:16.313Z,3.27
2019-05-30T03:48:16.636Z,3.28
2019-05-30T03:49:16.951Z,3.31
2019-05-30T03:50:17.579Z,3.34
2019-05-30T03:51:16.315Z,3.37
2019-05-30T03:52:17.147Z,3.33
2019-05-30T03:53:16.805Z,3.31
2019-05-30T03:54:17.128Z,3.34
2019-05-30T03:55:16.697Z,3.39
2019-05-30T03:56:17.122Z,3.39
2019-05-30T03:57:16.422Z,3.37
2019-05-30T03:58:20.138Z,3.37
2019-05-30T03:59:18.018Z,3.40
2019-05-30T04:00:16.407Z,3.41
2019-05-30T04:01:16.478Z,3.43
2019-05-30T04:02:18.404Z,3.44
2019-05-30T04:03:16.418Z,3.50
2019-05-30T04:04:17.074Z,3.47
2019-05-30T04:05:16.348Z,3.47
2019-05-30T04:06:16.708Z,3.50
2019-05-30T04:07:17.025Z,3.57
2019-05-30T04:08:16.381Z,3.58
2019-05-30T04:09:22.275Z,3.57
2019-05-30T04:10:16.533Z,3.61
2019-05-30T04:11:16.892Z,3.61
2019-05-30T04:12:16.628Z,3.64
2019-05-30T04:13:17.560Z,3.67
2019-05-30T04:14:16.735Z,3.68
2019-05-30T04:15:18.664Z,3.69
2019-05-30T04:16:17.185Z,3.74
2019-05-30T04:17:18.230Z,3.75
2019-05-30T04:18:16.519Z,3.78
2019-05-30T04:19:17.612Z,3.81
2019-05-30T04:20:19.745Z,3.85
2019-05-30T04:21:19.244Z,3.86
2019-05-30T04:22:16.947Z,3.90
2019-05-30T04:23:16.869Z,3.90
2019-05-30T04:24:16.756Z,3.98
2019-05-30T04:25:18.318Z,3.99
2019-05-30T04:26:18.087Z,3.99
2019-05-30T04:27:18.429Z,4.02
2019-05-30T04:28:18.508Z,4.05
2019-05-30T04:29:17.209Z,4.09
2019-05-30T04:30:16.436Z,4.14
2019-05-30T04:31:17.056Z,4.14
2019-05-30T04:32:16.676Z,4.19
2019-05-30T04:33:28.962Z,4.21
2019-05-30T04:34:17.554Z,4.23
2019-05-30T04:35:18.408Z,4.27
2019-05-30T04:36:16.958Z,4.28
2019-05-30T04:37:17.112Z,4.30
2019-05-30T04:38:17.069Z,4.34
2019-05-30T04:39:17.148Z,4.38
2019-05-30T04:40:17.565Z,4.43
2019-05-30T04:41:18.574Z,4.46
2019-05-30T04:42:18.750Z,4.48
2019-05-30T04:43:17.906Z,4.51
2019-05-30T04:44:17.935Z,4.51
2019-05-30T04:45:17.849Z,4.61
2019-05-30T04:46:19.070Z,4.63
2019-05-30T04:47:18.409Z,4.68
2019-05-30T04:48:18.576Z,4.76
2019-05-30T04:49:16.797Z,4.75
2019-05-30T04:50:16.523Z,4.76
2019-05-30T04:51:16.577Z,4.82
2019-05-30T04:52:20.384Z,4.86
2019-05-30T04:53:18.267Z,4.93
2019-05-30T04:54:17.273Z,5.06
2019-05-30T04:55:18.392Z,5.17
2019-05-30T04:56:18.762Z,5.19
2019-05-30T04:57:17.029Z,5.19
2019-05-30T04:58:17.862Z,5.22
2019-05-30T04:59:17.488Z,5.20
2019-05-30T05:00:17.074Z,5.30
2019-05-30T05:01:17.676Z,5.40
2019-05-30T05:02:18.711Z,5.40
2019-05-30T05:03:23.211Z,5.48
2019-05-30T05:04:17.696Z,5.52
2019-05-30T05:05:22.294Z,5.62
2019-05-30T05:06:17.843Z,5.65
2019-05-30T05:07:17.803Z,5.72
2019-05-30T05:08:17.748Z,5.75
2019-05-30T05:09:17.974Z,5.81
2019-05-30T05:10:18.076Z,5.85
2019-05-30T05:11:19.108Z,5.91
2019-05-30T05:12:18.092Z,5.92
2019-05-30T05:13:16.517Z,5.92
2019-05-30T05:14:16.792Z,6.06
2019-05-30T05:15:16.700Z,6.08
2019-05-30T05:16:25.702Z,6.12
2019-05-30T05:17:17.184Z,6.21
2019-05-30T05:18:17.101Z,6.27
2019-05-30T05:19:17.158Z,6.37
2019-05-30T05:20:17.202Z,6.45
2019-05-30T05:21:16.837Z,6.54
2019-05-30T05:22:17.196Z,6.67
2019-05-30T05:23:17.234Z,6.74
2019-05-30T05:24:17.281Z,6.78
2019-05-30T05:25:17.415Z,6.81
2019-05-30T05:26:17.417Z,6.89
2019-05-30T05:27:17.627Z,6.91
2019-05-30T05:28:17.711Z,6.88
2019-05-30T05:29:17.909Z,6.86
2019-05-30T05:30:16.287Z,6.99
2019-05-30T05:31:16.589Z,6.99
2019-05-30T05:32:17.927Z,7.10
2019-05-30T05:33:16.721Z,7.05
2019-05-30T05:34:17.058Z,7.03
2019-05-30T05:35:16.662Z,7.12
2019-05-30T05:36:17.079Z,7.20
2019-05-30T05:37:16.997Z,7.30
2019-05-30T05:38:16.348Z,7.40
2019-05-30T05:39:16.644Z,7.47
2019-05-30T05:40:16.290Z,7.59
2019-05-30T05:41:16.367Z,7.65
2019-05-30T05:42:16.629Z,7.68
2019-05-30T05:43:18.309Z,7.71
2019-05-30T05:44:18.211Z,7.77
2019-05-30T05:45:16.600Z,7.95
2019-05-30T05:46:16.863Z,7.93
2019-05-30T05:47:18.297Z,8.00
2019-05-30T05:48:16.781Z,8.06
2019-05-30T05:49:18.073Z,8.26
2019-05-30T05:50:16.861Z,8.30
2019-05-30T05:51:16.740Z,8.33
2019-05-30T05:52:17.042Z,8.45
2019-05-30T05:53:16.661Z,8.47
2019-05-30T05:54:16.978Z,8.59
2019-05-30T05:55:16.667Z,8.59
2019-05-30T05:56:17.018Z,8.61
2019-05-30T05:57:16.733Z,8.74
2019-05-30T05:58:17.092Z,8.92
2019-05-30T05:59:16.979Z,8.95
2019-05-30T06:00:16.852Z,8.96
2019-05-30T06:01:17.241Z,8.92
2019-05-30T06:02:17.593Z,8.98
2019-05-30T06:03:17.252Z,9.10
2019-05-30T06:04:17.163Z,9.16
2019-05-30T06:05:16.512Z,9.40
2019-05-30T06:06:17.233Z,9.48
2019-05-30T06:07:16.587Z,9.55
2019-05-30T06:08:17.330Z,9.69
2019-05-30T06:09:16.732Z,9.75
2019-05-30T06:10:17.487Z,9.96
2019-05-30T06:11:17.075Z,9.85
2019-05-30T06:12:17.564Z,9.91
2019-05-30T06:13:16.928Z,10.06
2019-05-30T06:14:17.776Z,10.03
2019-05-30T06:15:17.160Z,10.21
2019-05-30T06:16:17.694Z,10.30
2019-05-30T06:17:17.135Z,10.36
2019-05-30T06:18:16.403Z,10.78
2019-05-30T06:19:17.128Z,10.89
2019-05-30T06:20:17.302Z,11.33
2019-05-30T06:21:17.199Z,11.46
2019-05-30T06:22:17.381Z,11.89
2019-05-30T06:23:17.282Z,12.29
2019-05-30T06:24:17.621Z,12.61
2019-05-30T06:25:18.883Z,11.86
2019-05-30T06:26:17.668Z,11.99
2019-05-30T06:27:17.784Z,12.43
2019-05-30T06:28:17.954Z,12.37
2019-05-30T06:29:16.354Z,12.72
2019-05-30T06:30:16.629Z,13.25
2019-05-30T06:31:16.679Z,12.85
2019-05-30T06:32:16.941Z,12.64
2019-05-30T06:33:16.203Z,12.72
2019-05-30T06:34:29.089Z,13.26
2019-05-30T06:35:16.676Z,13.98
2019-05-30T06:36:16.937Z,13.92
2019-05-30T06:37:17.198Z,14.36
2019-05-30T06:38:16.467Z,14.15
2019-05-30T06:39:16.743Z,14.22
2019-05-30T06:40:17.017Z,14.25
2019-05-30T06:41:17.070Z,14.53
2019-05-30T06:42:16.339Z,14.08
2019-05-30T06:43:16.612Z,14.50
2019-05-30T06:44:16.872Z,14.20
2019-05-30T06:45:17.134Z,13.44
2019-05-30T06:46:16.399Z,13.68
2019-05-30T06:47:16.663Z,13.71
2019-05-30T06:48:16.938Z,13.54
2019-05-30T06:49:16.206Z,13.57
2019-05-30T06:50:16.515Z,13.74
2019-05-30T06:51:16.567Z,13.65
2019-05-30T06:52:16.883Z,14.49
2019-05-30T06:53:16.208Z,14.59
2019-05-30T06:54:16.493Z,14.84
2019-05-30T06:55:16.795Z,14.95
2019-05-30T06:56:17.128Z,14.78
2019-05-30T06:57:16.402Z,14.94
2019-05-30T06:58:16.680Z,14.83
2019-05-30T06:59:16.947Z,14.97
2019-05-30T07:00:16.223Z,15.06
2019-05-30T07:01:16.282Z,15.12
2019-05-30T07:02:16.609Z,14.46
2019-05-30T07:03:17.002Z,14.74
2019-05-30T07:04:16.865Z,14.44
2019-05-30T07:05:16.888Z,14.20
2019-05-30T07:06:16.621Z,14.56
2019-05-30T07:07:16.791Z,14.43
2019-05-30T07:08:16.533Z,14.52
2019-05-30T07:09:16.805Z,14.35
2019-05-30T07:10:17.118Z,14.35
2019-05-30T07:11:17.161Z,14.30
2019-05-30T07:12:16.427Z,14.18
2019-05-30T07:13:16.680Z,14.36
2019-05-30T07:14:16.947Z,14.41
2019-05-30T07:15:16.216Z,14.37
2019-05-30T07:16:16.484Z,14.71
2019-05-30T07:17:16.758Z,14.40
2019-05-30T07:18:17.033Z,14.23
2019-05-30T07:19:16.286Z,14.26
2019-05-30T07:20:16.564Z,14.59
2019-05-30T07:21:16.637Z,14.35
2019-05-30T07:22:16.906Z,14.25
2019-05-30T07:23:17.170Z,14.41
2019-05-30T07:24:16.432Z,14.60
2019-05-30T07:25:16.725Z,14.22
2019-05-30T07:26:16.986Z,14.29
2019-05-30T07:27:16.248Z,14.50
2019-05-30T07:28:16.505Z,14.94
2019-05-30T07:29:16.775Z,15.12
2019-05-30T07:30:17.091Z,15.18
2019-05-30T07:31:17.124Z,15.06
2019-05-30T07:32:16.406Z,15.14
2019-05-30T07:33:16.689Z,15.29
2019-05-30T07:34:16.949Z,15.19
2019-05-30T07:35:16.221Z,15.12
2019-05-30T07:36:16.488Z,14.99
2019-05-30T07:37:16.765Z,15.16
2019-05-30T07:38:17.045Z,14.77
2019-05-30T07:39:16.316Z,14.77
2019-05-30T07:40:19.335Z,14.80
2019-05-30T07:41:16.659Z,14.81
2019-05-30T07:42:16.925Z,14.73
2019-05-30T07:43:17.193Z,14.97
2019-05-30T07:44:16.451Z,14.85
2019-05-30T07:45:16.717Z,14.67
2019-05-30T07:46:16.976Z,14.67
2019-05-30T07:47:16.242Z,14.66
2019-05-30T07:48:16.515Z,14.63
2019-05-30T07:49:16.776Z,14.90
2019-05-30T07:50:17.048Z,14.87
2019-05-30T07:51:17.139Z,14.99
2019-05-30T07:52:16.405Z,15.04
2019-05-30T07:53:16.675Z,15.22
2019-05-30T07:54:16.946Z,15.28
2019-05-30T07:55:16.233Z,15.31
2019-05-30T07:56:16.495Z,15.62
2019-05-30T07:57:16.757Z,15.49
2019-05-30T07:58:17.041Z,15.12
2019-05-30T07:59:16.319Z,15.49
2019-05-30T08:00:16.597Z,15.54
2019-05-30T08:01:16.648Z,15.52
2019-05-30T08:02:16.910Z,15.31
2019-05-30T08:03:17.179Z,15.06
2019-05-30T08:04:16.458Z,15.02
2019-05-30T08:05:23.917Z,15.08
2019-05-30T08:06:16.302Z,15.14
2019-05-30T08:07:16.556Z,15.16
2019-05-30T08:08:16.818Z,15.01
2019-05-30T08:09:17.115Z,14.92
2019-05-30T08:10:16.495Z,14.94
2019-05-30T08:11:16.572Z,15.18
2019-05-30T08:12:16.835Z,15.29
2019-05-30T08:13:17.102Z,15.43
2019-05-30T08:14:16.371Z,15.71
2019-05-30T08:15:16.675Z,15.98
2019-05-30T08:16:16.971Z,15.78
2019-05-30T08:17:16.234Z,15.77
2019-05-30T08:18:16.514Z,15.73
2019-05-30T08:19:16.781Z,15.60
2019-05-30T08:20:17.079Z,15.57
2019-05-30T08:21:17.116Z,15.57
2019-05-30T08:22:16.400Z,15.46
2019-05-30T08:23:16.671Z,15.15
2019-05-30T08:24:16.928Z,15.05
2019-05-30T08:25:17.216Z,15.47
2019-05-30T08:26:18.288Z,15.52
2019-05-30T08:27:16.784Z,15.35
2019-05-30T08:28:17.054Z,15.63
2019-05-30T08:29:16.322Z,15.78
2019-05-30T08:30:16.619Z,16.02
2019-05-30T08:31:16.896Z,15.81
2019-05-30T08:32:17.157Z,15.88
2019-05-30T08:33:16.418Z,15.64
2019-05-30T08:34:16.779Z,15.45
2019-05-30T08:35:17.038Z,15.57
2019-05-30T08:36:16.312Z,15.70
2019-05-30T08:37:16.601Z,15.73
2019-05-30T08:38:16.874Z,15.52
2019-05-30T08:39:17.150Z,15.46
2019-05-30T08:40:16.428Z,15.56
2019-05-30T08:41:16.487Z,15.73
2019-05-30T08:42:16.767Z,15.84
2019-05-30T08:43:17.043Z,16.15
2019-05-30T08:44:16.313Z,16.50
2019-05-30T08:45:16.604Z,16.70
2019-05-30T08:46:16.878Z,16.42
2019-05-30T08:47:17.149Z,16.40
2019-05-30T08:48:16.481Z,16.24
2019-05-30T08:49:16.757Z,16.19
2019-05-30T08:50:17.033Z,16.33
2019-05-30T08:51:17.289Z,15.94
2019-05-30T08:52:16.564Z,16.21
2019-05-30T08:53:16.834Z,16.17
2019-05-30T08:54:17.103Z,16.05
2019-05-30T08:55:16.369Z,16.12
2019-05-30T08:56:16.641Z,16.76
2019-05-30T08:57:16.906Z,16.53
2019-05-30T08:58:16.230Z,16.40
2019-05-30T08:59:16.504Z,16.29
2019-05-30T09:00:16.778Z,16.02
2019-05-30T09:01:16.859Z,16.08
2019-05-30T09:02:17.131Z,16.07
2019-05-30T09:03:16.424Z,15.88
2019-05-30T09:04:16.687Z,15.90
2019-05-30T09:05:16.990Z,16.08
2019-05-30T09:06:16.316Z,16.14
2019-05-30T09:07:16.966Z,16.32
2019-05-30T09:08:16.220Z,16.24
2019-05-30T09:09:16.486Z,16.29
2019-05-30T09:10:16.769Z,16.29
2019-05-30T09:11:16.825Z,16.31
2019-05-30T09:12:17.091Z,16.39
2019-05-30T09:13:16.361Z,16.59
2019-05-30T09:14:16.633Z,16.60
2019-05-30T09:15:16.900Z,16.93
2019-05-30T09:16:17.174Z,16.73
2019-05-30T09:17:16.456Z,16.87
2019-05-30T09:18:16.742Z,16.74
2019-05-30T09:19:17.009Z,16.59
2019-05-30T09:20:16.277Z,16.68
2019-05-30T09:21:16.333Z,16.80
2019-05-30T09:22:16.591Z,16.94
2019-05-30T09:23:16.855Z,16.76
2019-05-30T09:24:17.165Z,16.80
2019-05-30T09:25:16.447Z,16.93
2019-05-30T09:26:16.717Z,16.83
2019-05-30T09:27:17.036Z,16.98
2019-05-30T09:28:16.366Z,16.90
2019-05-30T09:29:16.648Z,16.94
2019-05-30T09:30:16.938Z,16.86
2019-05-30T09:31:17.034Z,16.87
2019-05-30T09:32:16.324Z,17.17
2019-05-30T09:33:16.586Z,17.08
2019-05-30T09:34:16.842Z,16.71
2019-05-30T09:35:17.147Z,16.71
2019-05-30T09:36:16.419Z,16.95
2019-05-30T09:37:16.699Z,17.18
2019-05-30T09:38:16.971Z,17.17
2019-05-30T09:39:16.251Z,17.21
2019-05-30T09:40:16.524Z,17.29
2019-05-30T09:41:16.604Z,17.01
2019-05-30T09:42:16.870Z,17.00
2019-05-30T09:43:17.135Z,17.01
2019-05-30T09:44:16.431Z,16.91
2019-05-30T09:45:16.992Z,16.87
2019-05-30T09:46:16.672Z,17.07
2019-05-30T09:47:16.938Z,17.24
2019-05-30T09:48:17.203Z,17.36
2019-05-30T09:49:16.476Z,17.48
2019-05-30T09:50:16.747Z,17.63
2019-05-30T09:51:16.825Z,17.43
2019-05-30T09:52:17.109Z,17.46
2019-05-30T09:53:16.382Z,17.33
2019-05-30T09:54:16.682Z,17.31
2019-05-30T09:55:16.938Z,17.13
2019-05-30T09:56:16.218Z,17.28
2019-05-30T09:57:16.479Z,17.56
2019-05-30T09:58:16.761Z,17.57
2019-05-30T09:59:17.039Z,17.70
2019-05-30T10:00:16.305Z,17.50
2019-05-30T10:01:16.388Z,17.50
2019-05-30T10:02:16.665Z,17.60
2019-05-30T10:03:16.936Z,17.54
2019-05-30T10:04:16.211Z,17.52
2019-05-30T10:05:16.482Z,17.76
2019-05-30T10:06:28.775Z,17.86
2019-05-30T10:07:16.376Z,17.57
2019-05-30T10:08:16.656Z,17.60
2019-05-30T10:09:16.927Z,17.94
2019-05-30T10:10:16.228Z,17.97
2019-05-30T10:11:16.307Z,17.89
2019-05-30T10:12:16.576Z,17.72
2019-05-30T10:13:16.839Z,17.81
2019-05-30T10:14:17.107Z,17.45
2019-05-30T10:15:16.395Z,17.42
2019-05-30T10:16:16.669Z,17.87
2019-05-30T10:17:16.936Z,17.93
2019-05-30T10:18:16.226Z,17.91
2019-05-30T10:19:16.501Z,17.84
2019-05-30T10:20:16.841Z,17.89
2019-05-30T10:21:16.897Z,17.91
2019-05-30T10:22:17.190Z,17.86
2019-05-30T10:23:16.470Z,17.89
2019-05-30T10:24:16.744Z,18.07
2019-05-30T10:25:17.044Z,18.15
2019-05-30T10:26:16.323Z,17.86
2019-05-30T10:27:16.600Z,18.25
2019-05-30T10:28:16.876Z,18.01
2019-05-30T10:29:17.137Z,18.10
2019-05-30T10:30:16.409Z,17.87
2019-05-30T10:31:16.488Z,18.01
2019-05-30T10:32:16.753Z,17.94
2019-05-30T10:33:17.024Z,17.91
2019-05-30T10:34:16.282Z,17.87
2019-05-30T10:35:16.558Z,18.11
2019-05-30T10:36:19.767Z,18.08
2019-05-30T10:37:16.568Z,18.07
2019-05-30T10:38:19.735Z,18.01
2019-05-30T10:39:16.538Z,17.93
2019-05-30T10:40:16.812Z,18.04
2019-05-30T10:41:16.866Z,17.96
2019-05-30T10:42:17.134Z,18.18
2019-05-30T10:43:16.437Z,17.89
2019-05-30T10:44:16.703Z,18.01
2019-05-30T10:45:16.983Z,18.03
2019-05-30T10:46:16.273Z,18.05
2019-05-30T10:47:16.560Z,18.31
2019-05-30T10:48:19.944Z,18.31
2019-05-30T10:49:16.507Z,18.25
2019-05-30T10:50:16.801Z,18.33
2019-05-30T10:51:16.870Z,18.14
2019-05-30T10:52:17.140Z,17.93
2019-05-30T10:53:16.399Z,18.21
2019-05-30T10:54:16.675Z,18.21
2019-05-30T10:55:16.937Z,18.18
2019-05-30T10:56:16.206Z,17.91
2019-05-30T10:57:16.474Z,18.12
2019-05-30T10:58:16.775Z,18.00
2019-05-30T10:59:17.122Z,18.21
2019-05-30T11:00:16.405Z,18.12
2019-05-30T11:01:16.486Z,18.38
2019-05-30T11:02:16.756Z,18.44
2019-05-30T11:03:17.032Z,18.91
2019-05-30T11:04:16.299Z,19.07
2019-05-30T11:05:16.563Z,19.42
2019-05-30T11:06:16.837Z,19.28
2019-05-30T11:07:17.104Z,19.20
2019-05-30T11:08:16.370Z,19.38
2019-05-30T11:09:16.639Z,19.08
2019-05-30T11:10:16.905Z,19.46
2019-05-30T11:11:16.973Z,19.56
2019-05-30T11:12:16.234Z,19.97
2019-05-30T11:13:16.535Z,20.10
2019-05-30T11:14:16.817Z,20.44
2019-05-30T11:15:17.089Z,20.86
2019-05-30T11:16:16.360Z,21.07
2019-05-30T11:17:16.625Z,21.29
2019-05-30T11:18:16.886Z,21.40
2019-05-30T11:19:17.183Z,20.76
2019-05-30T11:20:16.483Z,20.87
2019-05-30T11:21:16.538Z,20.82
2019-05-30T11:22:16.805Z,20.60
2019-05-30T11:23:17.069Z,20.34
2019-05-30T11:24:16.341Z,20.63
2019-05-30T11:25:16.613Z,20.68
2019-05-30T11:26:16.877Z,20.49
2019-05-30T11:27:17.155Z,20.60
2019-05-30T11:28:16.428Z,19.83
2019-05-30T11:29:16.698Z,20.23
2019-05-30T11:30:16.984Z,20.23
2019-05-30T11:31:17.050Z,19.96
2019-05-30T11:32:16.355Z,19.80
2019-05-30T11:33:16.623Z,19.80
2019-05-30T11:34:16.891Z,19.80
2019-05-30T11:35:17.166Z,19.53
2019-05-30T11:36:16.444Z,19.45
2019-05-30T11:37:18.431Z,19.13
2019-05-30T11:38:16.590Z,19.25
2019-05-30T11:39:16.874Z,18.73
2019-05-30T11:40:17.142Z,18.76
2019-05-30T11:41:16.217Z,19.15
2019-05-30T11:42:16.478Z,19.22
2019-05-30T11:43:16.742Z,19.53
2019-05-30T11:44:17.032Z,19.76
2019-05-30T11:45:16.303Z,19.90
2019-05-30T11:46:16.570Z,20.04
2019-05-30T11:47:16.832Z,19.68
2019-05-30T11:48:17.102Z,19.46
2019-05-30T11:49:16.366Z,19.58
2019-05-30T11:50:16.645Z,19.42
2019-05-30T11:51:16.703Z,19.27
2019-05-30T11:52:16.973Z,19.32
2019-05-30T11:53:16.237Z,19.59
2019-05-30T11:54:16.516Z,19.84
2019-05-30T11:55:16.785Z,19.84
2019-05-30T11:56:17.055Z,19.38
2019-05-30T11:57:16.333Z,19.18
2019-05-30T11:58:19.506Z,19.44
2019-05-30T11:59:16.383Z,19.63
2019-05-30T12:00:16.653Z,19.44
2019-05-30T12:01:16.721Z,19.56
2019-05-30T12:02:17.009Z,19.56
2019-05-30T12:03:16.288Z,20.16
2019-05-30T12:04:16.557Z,20.14
2019-05-30T12:05:16.832Z,20.29
2019-05-30T12:06:17.099Z,20.01
2019-05-30T12:07:16.376Z,20.00
2019-05-30T12:08:16.643Z,20.14
2019-05-30T12:09:16.915Z,20.48
2019-05-30T12:10:17.185Z,20.63
2019-05-30T12:11:16.267Z,20.56
2019-05-30T12:12:16.536Z,20.52
2019-05-30T12:13:16.811Z,20.44
2019-05-30T12:14:17.093Z,19.97
2019-05-30T12:15:16.371Z,20.11
2019-05-30T12:16:16.643Z,19.53
2019-05-30T12:17:16.941Z,19.62
2019-05-30T12:18:16.214Z,19.69
2019-05-30T12:19:16.491Z,19.77
2019-05-30T12:20:16.777Z,19.72
2019-05-30T12:21:16.831Z,19.79
2019-05-30T12:22:17.118Z,19.72
2019-05-30T12:23:16.374Z,19.79
2019-05-30T12:24:16.629Z,19.81
2019-05-30T12:25:16.915Z,19.73
2019-05-30T12:26:17.190Z,19.68
2019-05-30T12:27:16.479Z,19.80
2019-05-30T12:28:16.754Z,19.31
2019-05-30T12:29:17.012Z,19.68
2019-05-30T12:30:16.300Z,19.68
2019-05-30T12:31:16.337Z,19.52
2019-05-30T12:32:16.620Z,19.60
2019-05-30T12:33:16.894Z,19.87
2019-05-30T12:34:17.168Z,19.05
2019-05-30T12:35:16.441Z,19.41
2019-05-30T12:36:16.721Z,19.63
2019-05-30T12:37:17.020Z,19.59
2019-05-30T12:38:16.312Z,19.53
2019-05-30T12:39:16.587Z,19.35
2019-05-30T12:40:16.888Z,19.17
2019-05-30T12:41:16.914Z,19.35
2019-05-30T12:42:17.202Z,19.73
2019-05-30T12:43:16.468Z,19.68
2019-05-30T12:44:16.741Z,19.69
2019-05-30T12:45:17.012Z,20.09
2019-05-30T12:46:16.286Z,20.04
2019-05-30T12:47:16.554Z,19.95
2019-05-30T12:48:17.057Z,20.08
2019-05-30T12:49:16.340Z,20.26
2019-05-30T12:50:16.928Z,20.40
2019-05-30T12:51:16.677Z,20.31
2019-05-30T12:52:16.936Z,20.21
2019-05-30T12:53:16.207Z,20.00
2019-05-30T12:54:16.672Z,20.17
2019-05-30T12:55:16.957Z,20.23
2019-05-30T12:56:16.224Z,19.62
2019-05-30T12:57:16.490Z,19.96
2019-05-30T12:58:16.771Z,20.11
2019-05-30T12:59:17.035Z,20.24
2019-05-30T13:00:18.824Z,19.96
2019-05-30T13:01:16.391Z,19.80
2019-05-30T13:02:16.660Z,20.00
2019-05-30T13:03:16.926Z,20.06
2019-05-30T13:04:17.184Z,20.08